Terminal Aerodrome Forecast
Issued by NWS Burlington, VT

Current Version | Previous Version | Text Only | Print | Product List | Glossary On
Versions: 1 2 3 4 5 6 7 8 9 10 11 12 13 14 15 16 17
000
FTUS41 KBTV 011100
TAFBTV
TAF
KBTV 011120Z 0112/0212 34006KT 5SM BR OVC003
      TEMPO 0112/0115 2SM BR
     FM011500 33005KT P6SM SCT006 BKN018 OVC030
     FM011700 34004KT P6SM SCT030
     FM020000 VRB02KT P6SM SCT015 BKN030
     FM020200 09003KT 6SM BR SCT018 BKN020=

USA.gov is the U.S. government's official web portal to all federal, state and local government web resources and services.